sensor_id;sensor_type;location;lat;lon;timestamp;P1;durP1;ratioP1;P2;durP2;ratioP2
38053;SDS011;23859;50.672;7.164;2022-08-21T00:00:14;13.68;;;6.80;;
38053;SDS011;23859;50.672;7.164;2022-08-21T00:02:51;14.43;;;6.38;;
38053;SDS011;23859;50.672;7.164;2022-08-21T00:05:21;18.85;;;7.55;;
38053;SDS011;23859;50.672;7.164;2022-08-21T00:07:49;14.25;;;7.07;;
38053;SDS011;23859;50.672;7.164;2022-08-21T00:10:16;11.10;;;6.60;;
38053;SDS011;23859;50.672;7.164;2022-08-21T00:12:43;17.50;;;7.13;;
38053;SDS011;23859;50.672;7.164;2022-08-21T00:15:11;14.80;;;6.47;;
38053;SDS011;23859;50.672;7.164;2022-08-21T00:17:39;13.25;;;6.53;;
38053;SDS011;23859;50.672;7.164;2022-08-21T00:20:06;10.23;;;5.78;;
38053;SDS011;23859;50.672;7.164;2022-08-21T00:22:34;12.02;;;6.13;;
38053;SDS011;23859;50.672;7.164;2022-08-21T00:25:01;12.70;;;6.97;;
38053;SDS011;23859;50.672;7.164;2022-08-21T00:27:28;14.23;;;6.60;;
38053;SDS011;23859;50.672;7.164;2022-08-21T00:29:54;11.68;;;6.05;;
38053;SDS011;23859;50.672;7.164;2022-08-21T00:32:23;12.07;;;5.65;;
38053;SDS011;23859;50.672;7.164;2022-08-21T00:34:52;11.07;;;5.47;;
38053;SDS011;23859;50.672;7.164;2022-08-21T00:37:18;14.02;;;5.30;;
38053;SDS011;23859;50.672;7.164;2022-08-21T00:39:45;11.00;;;5.20;;
38053;SDS011;23859;50.672;7.164;2022-08-21T00:42:12;11.05;;;5.90;;
38053;SDS011;23859;50.672;7.164;2022-08-21T00:44:40;11.20;;;5.72;;
38053;SDS011;23859;50.672;7.164;2022-08-21T00:47:10;18.48;;;6.03;;
38053;SDS011;23859;50.672;7.164;2022-08-21T00:49:37;14.85;;;6.03;;
38053;SDS011;23859;50.672;7.164;2022-08-21T00:52:05;10.75;;;5.93;;
38053;SDS011;23859;50.672;7.164;2022-08-21T00:54:34;15.75;;;6.18;;
38053;SDS011;23859;50.672;7.164;2022-08-21T00:57:03;15.65;;;6.07;;
38053;SDS011;23859;50.672;7.164;2022-08-21T00:59:34;10.65;;;5.40;;
38053;SDS011;23859;50.672;7.164;2022-08-21T01:02:05;14.40;;;5.53;;
38053;SDS011;23859;50.672;7.164;2022-08-21T01:04:32;12.40;;;5.90;;
38053;SDS011;23859;50.672;7.164;2022-08-21T01:06:59;13.23;;;6.32;;
38053;SDS011;23859;50.672;7.164;2022-08-21T01:09:26;10.13;;;6.28;;
38053;SDS011;23859;50.672;7.164;2022-08-21T01:11:52;10.32;;;6.25;;
38053;SDS011;23859;50.672;7.164;2022-08-21T01:14:19;12.70;;;7.13;;
38053;SDS011;23859;50.672;7.164;2022-08-21T01:16:46;11.55;;;6.15;;
38053;SDS011;23859;50.672;7.164;2022-08-21T01:19:14;9.90;;;6.47;;
38053;SDS011;23859;50.672;7.164;2022-08-21T01:21:43;15.55;;;6.35;;
38053;SDS011;23859;50.672;7.164;2022-08-21T01:24:09;10.02;;;6.90;;
38053;SDS011;23859;50.672;7.164;2022-08-21T01:26:36;17.05;;;7.00;;
38053;SDS011;23859;50.672;7.164;2022-08-21T01:31:40;13.38;;;6.18;;
38053;SDS011;23859;50.672;7.164;2022-08-21T01:34:09;12.50;;;6.88;;
38053;SDS011;23859;50.672;7.164;2022-08-21T01:36:37;14.63;;;6.63;;
38053;SDS011;23859;50.672;7.164;2022-08-21T01:39:03;15.07;;;8.27;;
38053;SDS011;23859;50.672;7.164;2022-08-21T01:41:30;12.88;;;7.18;;
38053;SDS011;23859;50.672;7.164;2022-08-21T01:43:56;12.18;;;6.70;;
38053;SDS011;23859;50.672;7.164;2022-08-21T01:46:22;19.52;;;7.50;;
38053;SDS011;23859;50.672;7.164;2022-08-21T01:48:48;10.73;;;6.40;;
38053;SDS011;23859;50.672;7.164;2022-08-21T01:51:14;14.50;;;6.38;;
38053;SDS011;23859;50.672;7.164;2022-08-21T01:53:41;13.75;;;6.28;;
38053;SDS011;23859;50.672;7.164;2022-08-21T01:56:09;11.52;;;6.80;;
38053;SDS011;23859;50.672;7.164;2022-08-21T01:58:37;13.93;;;6.32;;
38053;SDS011;23859;50.672;7.164;2022-08-21T02:01:03;9.70;;;6.57;;
38053;SDS011;23859;50.672;7.164;2022-08-21T02:03:30;13.52;;;6.10;;
38053;SDS011;23859;50.672;7.164;2022-08-21T02:05:56;13.07;;;5.93;;
38053;SDS011;23859;50.672;7.164;2022-08-21T02:08:22;10.70;;;6.43;;
38053;SDS011;23859;50.672;7.164;2022-08-21T02:10:49;12.32;;;7.22;;
38053;SDS011;23859;50.672;7.164;2022-08-21T02:13:16;15.60;;;7.10;;
38053;SDS011;23859;50.672;7.164;2022-08-21T02:15:43;15.77;;;7.40;;
38053;SDS011;23859;50.672;7.164;2022-08-21T02:18:09;11.57;;;6.95;;
38053;SDS011;23859;50.672;7.164;2022-08-21T02:20:37;16.45;;;7.45;;
38053;SDS011;23859;50.672;7.164;2022-08-21T02:23:06;9.73;;;6.38;;
38053;SDS011;23859;50.672;7.164;2022-08-21T02:25:34;16.40;;;6.97;;
38053;SDS011;23859;50.672;7.164;2022-08-21T02:28:08;13.30;;;6.85;;
38053;SDS011;23859;50.672;7.164;2022-08-21T02:30:38;11.55;;;7.15;;
38053;SDS011;23859;50.672;7.164;2022-08-21T02:33:06;23.42;;;8.23;;
38053;SDS011;23859;50.672;7.164;2022-08-21T02:35:34;14.82;;;6.65;;
38053;SDS011;23859;50.672;7.164;2022-08-21T02:38:03;12.68;;;7.78;;
38053;SDS011;23859;50.672;7.164;2022-08-21T02:40:31;10.50;;;6.32;;
38053;SDS011;23859;50.672;7.164;2022-08-21T02:43:00;13.88;;;7.18;;
38053;SDS011;23859;50.672;7.164;2022-08-21T02:45:30;15.07;;;7.10;;
38053;SDS011;23859;50.672;7.164;2022-08-21T02:47:58;13.55;;;6.85;;
38053;SDS011;23859;50.672;7.164;2022-08-21T02:50:28;13.80;;;7.05;;
38053;SDS011;23859;50.672;7.164;2022-08-21T02:52:56;11.23;;;7.18;;
38053;SDS011;23859;50.672;7.164;2022-08-21T02:55:24;10.73;;;7.25;;
38053;SDS011;23859;50.672;7.164;2022-08-21T02:57:53;13.32;;;7.28;;
38053;SDS011;23859;50.672;7.164;2022-08-21T03:00:21;17.83;;;8.32;;
38053;SDS011;23859;50.672;7.164;2022-08-21T03:02:49;16.08;;;7.88;;
38053;SDS011;23859;50.672;7.164;2022-08-21T03:05:15;19.65;;;7.75;;
38053;SDS011;23859;50.672;7.164;2022-08-21T03:07:43;11.20;;;7.22;;
38053;SDS011;23859;50.672;7.164;2022-08-21T03:10:11;16.85;;;9.07;;
38053;SDS011;23859;50.672;7.164;2022-08-21T03:12:38;9.35;;;7.38;;
38053;SDS011;23859;50.672;7.164;2022-08-21T03:15:06;11.27;;;8.00;;
38053;SDS011;23859;50.672;7.164;2022-08-21T03:17:34;13.80;;;7.50;;
38053;SDS011;23859;50.672;7.164;2022-08-21T03:20:00;21.35;;;8.73;;
38053;SDS011;23859;50.672;7.164;2022-08-21T03:22:28;14.48;;;7.95;;
38053;SDS011;23859;50.672;7.164;2022-08-21T03:24:54;13.68;;;7.82;;
38053;SDS011;23859;50.672;7.164;2022-08-21T03:27:20;17.77;;;8.70;;
38053;SDS011;23859;50.672;7.164;2022-08-21T03:29:47;16.95;;;8.07;;
38053;SDS011;23859;50.672;7.164;2022-08-21T03:32:13;11.02;;;6.88;;
38053;SDS011;23859;50.672;7.164;2022-08-21T03:34:39;12.70;;;7.78;;
38053;SDS011;23859;50.672;7.164;2022-08-21T03:37:06;12.00;;;7.28;;
38053;SDS011;23859;50.672;7.164;2022-08-21T03:39:32;14.75;;;7.45;;
38053;SDS011;23859;50.672;7.164;2022-08-21T03:41:59;13.85;;;7.68;;
38053;SDS011;23859;50.672;7.164;2022-08-21T03:44:26;13.82;;;7.45;;
38053;SDS011;23859;50.672;7.164;2022-08-21T03:46:53;19.45;;;8.70;;
38053;SDS011;23859;50.672;7.164;2022-08-21T03:49:20;10.80;;;7.63;;
38053;SDS011;23859;50.672;7.164;2022-08-21T03:51:46;17.02;;;8.10;;
38053;SDS011;23859;50.672;7.164;2022-08-21T03:54:12;14.10;;;7.95;;
38053;SDS011;23859;50.672;7.164;2022-08-21T03:56:38;14.93;;;8.25;;
38053;SDS011;23859;50.672;7.164;2022-08-21T03:59:05;15.15;;;7.70;;
38053;SDS011;23859;50.672;7.164;2022-08-21T04:01:31;13.07;;;7.97;;
38053;SDS011;23859;50.672;7.164;2022-08-21T04:03:57;16.45;;;8.73;;
38053;SDS011;23859;50.672;7.164;2022-08-21T04:06:24;16.33;;;8.93;;
38053;SDS011;23859;50.672;7.164;2022-08-21T04:08:51;16.05;;;8.95;;
38053;SDS011;23859;50.672;7.164;2022-08-21T04:11:18;15.82;;;9.10;;
38053;SDS011;23859;50.672;7.164;2022-08-21T04:13:44;13.60;;;8.60;;
38053;SDS011;23859;50.672;7.164;2022-08-21T04:16:11;14.18;;;8.45;;
38053;SDS011;23859;50.672;7.164;2022-08-21T04:18:38;12.60;;;9.05;;
38053;SDS011;23859;50.672;7.164;2022-08-21T04:21:04;17.50;;;9.30;;
38053;SDS011;23859;50.672;7.164;2022-08-21T04:23:32;15.48;;;9.40;;
38053;SDS011;23859;50.672;7.164;2022-08-21T04:25:59;16.90;;;9.85;;
38053;SDS011;23859;50.672;7.164;2022-08-21T04:28:25;18.52;;;9.85;;
38053;SDS011;23859;50.672;7.164;2022-08-21T04:30:52;14.23;;;8.73;;
38053;SDS011;23859;50.672;7.164;2022-08-21T04:33:19;19.52;;;9.93;;
38053;SDS011;23859;50.672;7.164;2022-08-21T04:35:45;18.00;;;9.93;;
38053;SDS011;23859;50.672;7.164;2022-08-21T04:38:12;12.07;;;8.45;;
38053;SDS011;23859;50.672;7.164;2022-08-21T04:40:38;17.10;;;8.48;;
38053;SDS011;23859;50.672;7.164;2022-08-21T04:43:06;13.18;;;8.40;;
38053;SDS011;23859;50.672;7.164;2022-08-21T04:45:34;14.75;;;7.63;;
38053;SDS011;23859;50.672;7.164;2022-08-21T04:48:04;16.85;;;7.88;;
38053;SDS011;23859;50.672;7.164;2022-08-21T04:50:43;14.27;;;8.32;;
38053;SDS011;23859;50.672;7.164;2022-08-21T04:53:24;14.35;;;7.90;;
38053;SDS011;23859;50.672;7.164;2022-08-21T04:55:56;14.90;;;8.75;;
38053;SDS011;23859;50.672;7.164;2022-08-21T04:58:27;15.40;;;9.07;;
38053;SDS011;23859;50.672;7.164;2022-08-21T05:00:56;20.10;;;8.93;;
38053;SDS011;23859;50.672;7.164;2022-08-21T05:03:24;14.82;;;8.43;;
38053;SDS011;23859;50.672;7.164;2022-08-21T05:05:51;12.98;;;8.85;;
38053;SDS011;23859;50.672;7.164;2022-08-21T05:08:18;13.30;;;7.65;;
38053;SDS011;23859;50.672;7.164;2022-08-21T05:10:48;15.98;;;7.90;;
38053;SDS011;23859;50.672;7.164;2022-08-21T05:13:14;14.68;;;8.75;;
38053;SDS011;23859;50.672;7.164;2022-08-21T05:15:41;17.25;;;8.68;;
38053;SDS011;23859;50.672;7.164;2022-08-21T05:18:07;11.77;;;7.50;;
38053;SDS011;23859;50.672;7.164;2022-08-21T05:20:33;16.25;;;8.70;;
38053;SDS011;23859;50.672;7.164;2022-08-21T05:23:00;14.95;;;8.18;;
38053;SDS011;23859;50.672;7.164;2022-08-21T05:25:27;17.52;;;8.15;;
38053;SDS011;23859;50.672;7.164;2022-08-21T05:27:53;11.70;;;7.65;;
38053;SDS011;23859;50.672;7.164;2022-08-21T05:30:19;14.57;;;7.68;;
38053;SDS011;23859;50.672;7.164;2022-08-21T05:32:46;13.77;;;7.55;;
38053;SDS011;23859;50.672;7.164;2022-08-21T05:35:15;13.52;;;8.30;;
38053;SDS011;23859;50.672;7.164;2022-08-21T05:37:41;14.70;;;8.63;;
38053;SDS011;23859;50.672;7.164;2022-08-21T05:40:07;16.55;;;9.10;;
38053;SDS011;23859;50.672;7.164;2022-08-21T05:42:34;12.00;;;7.47;;
38053;SDS011;23859;50.672;7.164;2022-08-21T05:45:00;11.90;;;7.90;;
38053;SDS011;23859;50.672;7.164;2022-08-21T05:47:26;12.02;;;8.05;;
38053;SDS011;23859;50.672;7.164;2022-08-21T05:49:52;14.05;;;8.60;;
38053;SDS011;23859;50.672;7.164;2022-08-21T05:52:21;10.82;;;7.47;;
38053;SDS011;23859;50.672;7.164;2022-08-21T05:54:48;11.63;;;7.40;;
38053;SDS011;23859;50.672;7.164;2022-08-21T05:57:14;14.13;;;7.97;;
38053;SDS011;23859;50.672;7.164;2022-08-21T05:59:41;17.58;;;9.32;;
38053;SDS011;23859;50.672;7.164;2022-08-21T06:02:07;14.23;;;8.27;;
38053;SDS011;23859;50.672;7.164;2022-08-21T06:04:37;14.13;;;7.75;;
38053;SDS011;23859;50.672;7.164;2022-08-21T06:07:04;13.82;;;8.20;;
38053;SDS011;23859;50.672;7.164;2022-08-21T06:09:31;12.02;;;8.32;;
38053;SDS011;23859;50.672;7.164;2022-08-21T06:11:57;20.02;;;8.75;;
38053;SDS011;23859;50.672;7.164;2022-08-21T06:14:27;15.07;;;7.53;;
38053;SDS011;23859;50.672;7.164;2022-08-21T06:16:53;13.90;;;7.45;;
38053;SDS011;23859;50.672;7.164;2022-08-21T06:19:25;13.63;;;7.75;;
38053;SDS011;23859;50.672;7.164;2022-08-21T06:21:51;16.75;;;8.07;;
38053;SDS011;23859;50.672;7.164;2022-08-21T06:24:17;9.35;;;7.40;;
38053;SDS011;23859;50.672;7.164;2022-08-21T06:26:44;13.85;;;6.93;;
38053;SDS011;23859;50.672;7.164;2022-08-21T06:29:12;14.13;;;7.47;;
38053;SDS011;23859;50.672;7.164;2022-08-21T06:31:41;15.45;;;8.02;;
38053;SDS011;23859;50.672;7.164;2022-08-21T06:34:07;14.05;;;7.72;;
38053;SDS011;23859;50.672;7.164;2022-08-21T06:36:34;17.60;;;7.72;;
38053;SDS011;23859;50.672;7.164;2022-08-21T06:39:00;18.10;;;7.72;;
38053;SDS011;23859;50.672;7.164;2022-08-21T06:41:27;13.63;;;8.15;;
38053;SDS011;23859;50.672;7.164;2022-08-21T06:43:54;11.35;;;7.45;;
38053;SDS011;23859;50.672;7.164;2022-08-21T06:46:21;10.80;;;7.45;;
38053;SDS011;23859;50.672;7.164;2022-08-21T06:48:48;12.70;;;7.30;;
38053;SDS011;23859;50.672;7.164;2022-08-21T06:51:14;11.57;;;7.32;;
38053;SDS011;23859;50.672;7.164;2022-08-21T06:53:40;14.07;;;7.85;;
38053;SDS011;23859;50.672;7.164;2022-08-21T06:56:08;11.20;;;7.15;;
38053;SDS011;23859;50.672;7.164;2022-08-21T06:58:34;15.20;;;8.20;;
38053;SDS011;23859;50.672;7.164;2022-08-21T07:01:00;13.98;;;7.90;;
38053;SDS011;23859;50.672;7.164;2022-08-21T07:03:30;14.75;;;7.95;;
38053;SDS011;23859;50.672;7.164;2022-08-21T07:05:58;18.58;;;7.95;;
38053;SDS011;23859;50.672;7.164;2022-08-21T07:08:25;12.63;;;7.20;;
38053;SDS011;23859;50.672;7.164;2022-08-21T07:10:53;16.23;;;7.85;;
38053;SDS011;23859;50.672;7.164;2022-08-21T07:13:22;15.43;;;7.95;;
38053;SDS011;23859;50.672;7.164;2022-08-21T07:15:48;13.63;;;7.85;;
38053;SDS011;23859;50.672;7.164;2022-08-21T07:18:15;13.15;;;7.25;;
38053;SDS011;23859;50.672;7.164;2022-08-21T07:20:41;12.35;;;7.22;;
38053;SDS011;23859;50.672;7.164;2022-08-21T07:23:09;15.15;;;6.78;;
38053;SDS011;23859;50.672;7.164;2022-08-21T07:25:51;14.10;;;6.75;;
38053;SDS011;23859;50.672;7.164;2022-08-21T07:28:17;12.85;;;7.45;;
38053;SDS011;23859;50.672;7.164;2022-08-21T07:30:43;13.50;;;8.02;;
38053;SDS011;23859;50.672;7.164;2022-08-21T07:33:10;13.15;;;6.40;;
38053;SDS011;23859;50.672;7.164;2022-08-21T07:35:37;19.00;;;6.47;;
38053;SDS011;23859;50.672;7.164;2022-08-21T07:38:03;19.58;;;6.90;;
38053;SDS011;23859;50.672;7.164;2022-08-21T07:40:29;10.20;;;6.35;;
38053;SDS011;23859;50.672;7.164;2022-08-21T07:42:55;12.80;;;6.18;;
38053;SDS011;23859;50.672;7.164;2022-08-21T07:45:22;17.10;;;6.53;;
38053;SDS011;23859;50.672;7.164;2022-08-21T07:47:49;10.43;;;6.00;;
38053;SDS011;23859;50.672;7.164;2022-08-21T07:50:16;14.75;;;5.88;;
38053;SDS011;23859;50.672;7.164;2022-08-21T07:52:42;13.85;;;6.28;;
38053;SDS011;23859;50.672;7.164;2022-08-21T07:55:10;11.77;;;6.03;;
38053;SDS011;23859;50.672;7.164;2022-08-21T07:57:43;10.90;;;5.20;;
38053;SDS011;23859;50.672;7.164;2022-08-21T08:00:11;13.10;;;4.93;;
38053;SDS011;23859;50.672;7.164;2022-08-21T08:02:40;9.80;;;5.45;;
38053;SDS011;23859;50.672;7.164;2022-08-21T08:05:09;9.13;;;4.78;;
38053;SDS011;23859;50.672;7.164;2022-08-21T08:07:36;9.07;;;4.65;;
38053;SDS011;23859;50.672;7.164;2022-08-21T08:10:03;13.30;;;5.25;;
38053;SDS011;23859;50.672;7.164;2022-08-21T08:12:31;10.80;;;4.80;;
38053;SDS011;23859;50.672;7.164;2022-08-21T08:15:04;12.00;;;5.20;;
38053;SDS011;23859;50.672;7.164;2022-08-21T08:17:32;9.30;;;4.13;;
38053;SDS011;23859;50.672;7.164;2022-08-21T08:19:59;10.18;;;4.88;;
38053;SDS011;23859;50.672;7.164;2022-08-21T08:22:28;8.95;;;4.75;;
38053;SDS011;23859;50.672;7.164;2022-08-21T08:24:54;11.20;;;4.82;;
38053;SDS011;23859;50.672;7.164;2022-08-21T08:27:21;11.77;;;4.88;;
38053;SDS011;23859;50.672;7.164;2022-08-21T08:29:47;9.35;;;4.60;;
38053;SDS011;23859;50.672;7.164;2022-08-21T08:32:14;6.80;;;4.78;;
38053;SDS011;23859;50.672;7.164;2022-08-21T08:34:40;17.33;;;4.95;;
38053;SDS011;23859;50.672;7.164;2022-08-21T08:37:07;14.05;;;5.22;;
38053;SDS011;23859;50.672;7.164;2022-08-21T08:39:34;10.05;;;4.90;;
38053;SDS011;23859;50.672;7.164;2022-08-21T08:42:08;9.98;;;4.47;;
38053;SDS011;23859;50.672;7.164;2022-08-21T08:44:42;11.20;;;5.07;;
38053;SDS011;23859;50.672;7.164;2022-08-21T08:47:10;8.75;;;4.45;;
38053;SDS011;23859;50.672;7.164;2022-08-21T08:52:33;10.65;;;4.50;;
38053;SDS011;23859;50.672;7.164;2022-08-21T08:57:30;7.90;;;4.28;;
38053;SDS011;23859;50.672;7.164;2022-08-21T08:59:58;7.03;;;4.00;;
38053;SDS011;23859;50.672;7.164;2022-08-21T09:02:26;7.55;;;3.85;;
38053;SDS011;23859;50.672;7.164;2022-08-21T09:04:53;10.27;;;3.72;;
38053;SDS011;23859;50.672;7.164;2022-08-21T09:07:37;8.27;;;2.80;;
38053;SDS011;23859;50.672;7.164;2022-08-21T09:13:02;9.77;;;3.35;;
38053;SDS011;23859;50.672;7.164;2022-08-21T09:15:45;6.75;;;3.38;;
38053;SDS011;23859;50.672;7.164;2022-08-21T09:21:05;8.88;;;3.72;;
38053;SDS011;23859;50.672;7.164;2022-08-21T09:26:18;10.48;;;4.03;;
38053;SDS011;23859;50.672;7.164;2022-08-21T09:28:51;8.48;;;3.60;;
38053;SDS011;23859;50.672;7.164;2022-08-21T09:33:58;11.88;;;3.50;;
38053;SDS011;23859;50.672;7.164;2022-08-21T09:36:31;9.27;;;3.20;;
38053;SDS011;23859;50.672;7.164;2022-08-21T09:39:10;9.43;;;3.88;;
38053;SDS011;23859;50.672;7.164;2022-08-21T09:41:38;7.45;;;3.17;;
38053;SDS011;23859;50.672;7.164;2022-08-21T09:44:05;12.68;;;4.03;;
38053;SDS011;23859;50.672;7.164;2022-08-21T09:46:33;7.22;;;3.00;;
38053;SDS011;23859;50.672;7.164;2022-08-21T09:49:02;9.73;;;2.85;;
38053;SDS011;23859;50.672;7.164;2022-08-21T09:51:33;11.40;;;2.85;;
38053;SDS011;23859;50.672;7.164;2022-08-21T09:56:35;7.38;;;2.63;;
38053;SDS011;23859;50.672;7.164;2022-08-21T10:04:24;7.10;;;2.80;;
38053;SDS011;23859;50.672;7.164;2022-08-21T10:07:05;5.43;;;2.15;;
38053;SDS011;23859;50.672;7.164;2022-08-21T10:09:39;11.48;;;2.60;;
38053;SDS011;23859;50.672;7.164;2022-08-21T10:12:15;10.13;;;2.42;;
38053;SDS011;23859;50.672;7.164;2022-08-21T10:14:54;10.25;;;2.70;;
38053;SDS011;23859;50.672;7.164;2022-08-21T10:17:56;6.82;;;2.75;;
38053;SDS011;23859;50.672;7.164;2022-08-21T10:20:45;7.85;;;2.40;;
38053;SDS011;23859;50.672;7.164;2022-08-21T10:26:50;10.18;;;3.13;;
38053;SDS011;23859;50.672;7.164;2022-08-21T10:29:39;7.95;;;2.92;;
38053;SDS011;23859;50.672;7.164;2022-08-21T10:40:19;5.53;;;1.98;;
38053;SDS011;23859;50.672;7.164;2022-08-21T10:43:19;6.00;;;2.10;;
38053;SDS011;23859;50.672;7.164;2022-08-21T10:46:07;6.00;;;2.05;;
38053;SDS011;23859;50.672;7.164;2022-08-21T10:48:47;5.05;;;1.40;;
38053;SDS011;23859;50.672;7.164;2022-08-21T10:51:34;7.53;;;2.55;;
38053;SDS011;23859;50.672;7.164;2022-08-21T10:54:16;5.63;;;1.80;;
38053;SDS011;23859;50.672;7.164;2022-08-21T10:56:47;6.28;;;2.38;;
38053;SDS011;23859;50.672;7.164;2022-08-21T10:59:26;5.82;;;2.63;;
38053;SDS011;23859;50.672;7.164;2022-08-21T11:02:20;4.65;;;2.17;;
38053;SDS011;23859;50.672;7.164;2022-08-21T11:04:54;7.60;;;1.98;;
38053;SDS011;23859;50.672;7.164;2022-08-21T11:07:33;5.18;;;1.92;;
38053;SDS011;23859;50.672;7.164;2022-08-21T11:10:11;8.55;;;2.20;;
38053;SDS011;23859;50.672;7.164;2022-08-21T11:12:49;2.88;;;1.80;;
38053;SDS011;23859;50.672;7.164;2022-08-21T11:18:04;7.38;;;2.15;;
38053;SDS011;23859;50.672;7.164;2022-08-21T11:27:16;4.80;;;2.10;;
38053;SDS011;23859;50.672;7.164;2022-08-21T11:29:32;4.18;;;1.90;;
38053;SDS011;23859;50.672;7.164;2022-08-21T11:34:54;4.32;;;2.05;;
38053;SDS011;23859;50.672;7.164;2022-08-21T11:45:22;7.13;;;2.28;;
38053;SDS011;23859;50.672;7.164;2022-08-21T11:50:28;6.10;;;2.05;;
38053;SDS011;23859;50.672;7.164;2022-08-21T11:52:58;6.80;;;2.25;;
38053;SDS011;23859;50.672;7.164;2022-08-21T11:56:05;5.60;;;1.63;;
38053;SDS011;23859;50.672;7.164;2022-08-21T11:58:37;3.53;;;1.95;;
38053;SDS011;23859;50.672;7.164;2022-08-21T12:01:19;3.92;;;2.10;;
38053;SDS011;23859;50.672;7.164;2022-08-21T12:03:54;6.82;;;1.70;;
38053;SDS011;23859;50.672;7.164;2022-08-21T12:06:53;5.47;;;1.80;;
38053;SDS011;23859;50.672;7.164;2022-08-21T12:12:36;2.50;;;1.42;;
38053;SDS011;23859;50.672;7.164;2022-08-21T12:14:48;2.97;;;1.55;;
38053;SDS011;23859;50.672;7.164;2022-08-21T12:17:18;4.72;;;1.58;;
38053;SDS011;23859;50.672;7.164;2022-08-21T12:20:14;3.97;;;1.83;;
38053;SDS011;23859;50.672;7.164;2022-08-21T12:23:01;4.50;;;1.48;;
38053;SDS011;23859;50.672;7.164;2022-08-21T12:25:35;4.38;;;1.30;;
38053;SDS011;23859;50.672;7.164;2022-08-21T12:28:06;3.95;;;1.65;;
38053;SDS011;23859;50.672;7.164;2022-08-21T12:30:37;7.20;;;1.95;;
38053;SDS011;23859;50.672;7.164;2022-08-21T12:33:06;4.53;;;1.73;;
38053;SDS011;23859;50.672;7.164;2022-08-21T12:35:52;4.68;;;2.10;;
38053;SDS011;23859;50.672;7.164;2022-08-21T12:38:29;5.45;;;1.70;;
38053;SDS011;23859;50.672;7.164;2022-08-21T12:41:06;4.63;;;1.48;;
38053;SDS011;23859;50.672;7.164;2022-08-21T12:43:41;5.03;;;2.00;;
38053;SDS011;23859;50.672;7.164;2022-08-21T12:46:19;6.90;;;1.90;;
38053;SDS011;23859;50.672;7.164;2022-08-21T12:48:52;4.50;;;1.70;;
38053;SDS011;23859;50.672;7.164;2022-08-21T12:51:22;4.07;;;1.58;;
38053;SDS011;23859;50.672;7.164;2022-08-21T12:53:54;5.18;;;2.13;;
38053;SDS011;23859;50.672;7.164;2022-08-21T12:56:25;4.72;;;1.65;;
38053;SDS011;23859;50.672;7.164;2022-08-21T12:58:56;6.07;;;1.50;;
38053;SDS011;23859;50.672;7.164;2022-08-21T13:04:16;4.38;;;1.88;;
38053;SDS011;23859;50.672;7.164;2022-08-21T13:06:47;8.90;;;1.80;;
38053;SDS011;23859;50.672;7.164;2022-08-21T13:09:18;6.05;;;1.85;;
38053;SDS011;23859;50.672;7.164;2022-08-21T13:11:48;2.70;;;1.58;;
38053;SDS011;23859;50.672;7.164;2022-08-21T13:14:31;4.55;;;1.85;;
38053;SDS011;23859;50.672;7.164;2022-08-21T13:17:03;5.57;;;1.65;;
38053;SDS011;23859;50.672;7.164;2022-08-21T13:19:30;5.63;;;1.67;;
38053;SDS011;23859;50.672;7.164;2022-08-21T13:21:57;4.40;;;2.03;;
38053;SDS011;23859;50.672;7.164;2022-08-21T13:26:52;4.82;;;1.98;;
38053;SDS011;23859;50.672;7.164;2022-08-21T13:29:20;4.55;;;1.88;;
38053;SDS011;23859;50.672;7.164;2022-08-21T13:31:49;4.20;;;1.40;;
38053;SDS011;23859;50.672;7.164;2022-08-21T13:34:20;5.03;;;1.95;;
38053;SDS011;23859;50.672;7.164;2022-08-21T13:36:51;1.67;;;1.35;;
38053;SDS011;23859;50.672;7.164;2022-08-21T13:39:20;4.88;;;1.63;;
38053;SDS011;23859;50.672;7.164;2022-08-21T13:41:48;3.17;;;1.70;;
38053;SDS011;23859;50.672;7.164;2022-08-21T13:44:21;4.32;;;1.48;;
38053;SDS011;23859;50.672;7.164;2022-08-21T13:46:56;3.78;;;1.52;;
38053;SDS011;23859;50.672;7.164;2022-08-21T13:49:32;4.22;;;2.00;;
38053;SDS011;23859;50.672;7.164;2022-08-21T13:52:03;5.38;;;1.60;;
38053;SDS011;23859;50.672;7.164;2022-08-21T13:54:39;5.13;;;1.52;;
38053;SDS011;23859;50.672;7.164;2022-08-21T13:57:20;3.20;;;1.27;;
38053;SDS011;23859;50.672;7.164;2022-08-21T13:59:52;3.45;;;1.25;;
38053;SDS011;23859;50.672;7.164;2022-08-21T14:02:36;3.95;;;1.88;;
38053;SDS011;23859;50.672;7.164;2022-08-21T14:05:05;3.00;;;1.70;;
38053;SDS011;23859;50.672;7.164;2022-08-21T14:10:08;4.00;;;1.30;;
38053;SDS011;23859;50.672;7.164;2022-08-21T14:12:43;5.03;;;1.85;;
38053;SDS011;23859;50.672;7.164;2022-08-21T14:17:43;2.60;;;1.40;;
38053;SDS011;23859;50.672;7.164;2022-08-21T14:20:12;5.95;;;2.22;;
38053;SDS011;23859;50.672;7.164;2022-08-21T14:22:59;3.75;;;1.65;;
38053;SDS011;23859;50.672;7.164;2022-08-21T14:27:58;2.92;;;1.38;;
38053;SDS011;23859;50.672;7.164;2022-08-21T14:30:41;4.43;;;1.33;;
38053;SDS011;23859;50.672;7.164;2022-08-21T14:33:09;4.25;;;1.50;;
38053;SDS011;23859;50.672;7.164;2022-08-21T14:35:37;2.53;;;1.42;;
38053;SDS011;23859;50.672;7.164;2022-08-21T14:38:11;4.40;;;1.42;;
38053;SDS011;23859;50.672;7.164;2022-08-21T14:40:46;7.93;;;1.73;;
38053;SDS011;23859;50.672;7.164;2022-08-21T14:43:17;2.95;;;1.42;;
38053;SDS011;23859;50.672;7.164;2022-08-21T14:45:44;4.10;;;1.30;;
38053;SDS011;23859;50.672;7.164;2022-08-21T14:48:10;3.83;;;1.35;;
38053;SDS011;23859;50.672;7.164;2022-08-21T14:50:37;7.10;;;1.92;;
38053;SDS011;23859;50.672;7.164;2022-08-21T14:53:03;5.55;;;1.60;;
38053;SDS011;23859;50.672;7.164;2022-08-21T14:55:30;3.63;;;1.50;;
38053;SDS011;23859;50.672;7.164;2022-08-21T14:58:20;4.00;;;1.52;;
38053;SDS011;23859;50.672;7.164;2022-08-21T15:00:47;6.57;;;1.85;;
38053;SDS011;23859;50.672;7.164;2022-08-21T15:03:14;6.75;;;1.58;;
38053;SDS011;23859;50.672;7.164;2022-08-21T15:05:41;4.53;;;1.48;;
38053;SDS011;23859;50.672;7.164;2022-08-21T15:08:07;4.38;;;1.33;;
38053;SDS011;23859;50.672;7.164;2022-08-21T15:10:33;4.18;;;1.65;;
38053;SDS011;23859;50.672;7.164;2022-08-21T15:13:00;3.97;;;1.58;;
38053;SDS011;23859;50.672;7.164;2022-08-21T15:15:27;2.88;;;1.45;;
38053;SDS011;23859;50.672;7.164;2022-08-21T15:17:57;5.78;;;1.65;;
38053;SDS011;23859;50.672;7.164;2022-08-21T15:20:23;2.92;;;1.42;;
38053;SDS011;23859;50.672;7.164;2022-08-21T15:22:49;5.20;;;1.40;;
38053;SDS011;23859;50.672;7.164;2022-08-21T15:25:15;4.65;;;1.67;;
38053;SDS011;23859;50.672;7.164;2022-08-21T15:27:41;3.30;;;1.70;;
38053;SDS011;23859;50.672;7.164;2022-08-21T15:30:07;6.05;;;1.95;;
38053;SDS011;23859;50.672;7.164;2022-08-21T15:32:34;7.53;;;1.52;;
38053;SDS011;23859;50.672;7.164;2022-08-21T15:35:00;4.70;;;1.65;;
38053;SDS011;23859;50.672;7.164;2022-08-21T15:37:27;7.43;;;2.08;;
38053;SDS011;23859;50.672;7.164;2022-08-21T15:39:53;5.65;;;2.08;;
38053;SDS011;23859;50.672;7.164;2022-08-21T15:42:20;5.40;;;2.17;;
38053;SDS011;23859;50.672;7.164;2022-08-21T15:44:47;5.53;;;2.03;;
38053;SDS011;23859;50.672;7.164;2022-08-21T15:47:15;7.63;;;2.20;;
38053;SDS011;23859;50.672;7.164;2022-08-21T15:49:44;4.78;;;1.60;;
38053;SDS011;23859;50.672;7.164;2022-08-21T15:52:11;4.30;;;1.88;;
38053;SDS011;23859;50.672;7.164;2022-08-21T15:54:38;4.38;;;1.58;;
38053;SDS011;23859;50.672;7.164;2022-08-21T15:57:05;6.15;;;2.05;;
38053;SDS011;23859;50.672;7.164;2022-08-21T15:59:32;5.05;;;1.70;;
38053;SDS011;23859;50.672;7.164;2022-08-21T16:02:07;2.75;;;1.42;;
38053;SDS011;23859;50.672;7.164;2022-08-21T16:04:42;6.15;;;1.70;;
38053;SDS011;23859;50.672;7.164;2022-08-21T16:07:08;10.07;;;2.20;;
38053;SDS011;23859;50.672;7.164;2022-08-21T16:09:35;7.18;;;1.98;;
38053;SDS011;23859;50.672;7.164;2022-08-21T16:12:01;7.70;;;2.05;;